GMME

Rabat-Salé Airport

Rabat, Morocco
METAR GMME 180830Z 00000KT CAVOK 06/03 Q1027 NOSIG
Observed Flight Rules
Dec-18 @ 08:30 UTC (32 minutes ago) Visual Flight Rules
Wind Visibility Clouds
Calm 10,000+ meters
  • Clear skies
Temperatures Readings
Current 6°C / 43°F
Dewpoint 3°C / 37°F
Humidity 81%
Altimeter 30.32" Hg
Pressure 1027 hPa
Elevation 75
METAR GMME 180830Z 00000KT CAVOK 06/03 Q1027 NOSIG
Observed Flight Rules
Dec-18 @ 08:30 UTC
(32 minutes ago)
VFR
Wind Visibility
Calm 10,000+ meters
Clouds
  • Clear skies
Temperature Dewpoint
6°C / 43°F 3°C / 37°F
Humidity Altimeter Pressure
81% 30.32" Hg 1027 hPa